Aviation Digital Data Service (ADDS)

Output produced by METARs form (1208 UTC 24 March 2017)
found at http://www.aviationweather.gov/adds/metars/
 
HKEL 241100Z 04013KT 9999 FEW028CB SCT029 SCT300 27/04 Q1022
TAF HKEL 241100Z 2412/2512 06010KT 9999 FEW027CB BKN300 
     BECMG 2415/2418 24008KT 
     BECMG 2421/2423 16005KT 
     BECMG 2503/2506 09005KT
       
HKJK 241100Z 08010KT 9999 SCT032 29/11 Q1019 NOSIG
TAF HKJK 241100Z 2412/2518 06010KT 9999 SCT029 
     TEMPO 2503/2506 FEW021CB BKN022
       
HKKI 241100Z 22010KT 9999 FEW030CB 29/18 Q1014
TAF HKKI 241100Z 2412/2512 22010KT 9999 FEW027CB SCT300 
     BECMG 418/2421 33005KT 
     BECMG 2503/2506 -TS FEW020CB SCT022 BKN270
       
HKML 241100Z 12012KT 9999 SCT026 SCT270 30/24 Q1009
TAF HKML 241100Z 2412/2512 12015KT 9999 FEW026CB SCT026 
     BECMG 2500/2506 00000KT 
     BECMG 2509/2512 12015KT SCT026
       
HKMO 241100Z 12010KT 9999 SCT025CB SCT026 33/24 Q1010 NOSIG
TAF HKMO 241100Z 2412/2518 12010KT 9999 FEW025CB SCT026 
     BECMG 2500/2506 23005KT 
     BECMG 2509/2515 15010KT FEW026CB BKN026
       
HKNW 241100Z 06006KT 9999 SCT030 28/09 Q1018